createdAt,value
2023-03-12T00:02:25.076Z,17.96
2023-03-12T00:06:24.997Z,17.93
2023-03-12T00:10:24.962Z,17.89
2023-03-12T00:14:24.994Z,17.90
2023-03-12T00:18:24.952Z,17.93
2023-03-12T00:22:24.880Z,17.94
2023-03-12T00:26:24.857Z,17.94
2023-03-12T00:30:24.824Z,17.93
2023-03-12T00:34:24.743Z,17.84
2023-03-12T00:38:24.728Z,17.94
2023-03-12T00:42:24.682Z,17.95
2023-03-12T00:46:24.710Z,17.96
2023-03-12T00:50:24.798Z,17.94
2023-03-12T00:54:25.025Z,17.96
2023-03-12T00:58:25.012Z,17.95
2023-03-12T01:02:24.983Z,17.95
2023-03-12T01:06:24.965Z,17.98
2023-03-12T01:10:24.915Z,17.94
2023-03-12T01:14:24.872Z,17.92
2023-03-12T01:18:24.847Z,17.89
2023-03-12T01:22:24.824Z,17.94
2023-03-12T01:26:24.808Z,17.92
2023-03-12T01:30:24.750Z,17.92
2023-03-12T01:34:24.686Z,17.94
2023-03-12T01:38:24.674Z,17.89
2023-03-12T01:42:24.610Z,17.89
2023-03-12T01:46:24.610Z,17.89
2023-03-12T01:50:24.633Z,17.92
2023-03-12T01:54:24.760Z,17.94
2023-03-12T01:58:24.864Z,17.89
2023-03-12T02:02:25.001Z,17.91
2023-03-12T02:06:25.019Z,17.90
2023-03-12T02:10:25.151Z,17.89
2023-03-12T02:14:25.328Z,17.95
2023-03-12T02:18:25.512Z,17.92
2023-03-12T02:22:25.648Z,17.90
2023-03-12T02:26:25.815Z,17.88
2023-03-12T02:30:26.021Z,17.89
2023-03-12T02:34:25.961Z,17.88
2023-03-12T02:38:25.928Z,17.94
2023-03-12T02:42:25.917Z,17.92
2023-03-12T02:46:25.926Z,17.95
2023-03-12T02:50:25.830Z,17.89
2023-03-12T02:54:25.783Z,17.92
2023-03-12T02:58:25.778Z,17.88
2023-03-12T03:02:25.736Z,17.90
2023-03-12T03:06:25.682Z,17.90
2023-03-12T03:10:25.672Z,17.95
2023-03-12T03:14:25.609Z,17.95
2023-03-12T03:18:25.617Z,17.92
2023-03-12T03:22:25.652Z,17.92
2023-03-12T03:26:25.825Z,17.92
2023-03-12T03:30:25.948Z,17.89
2023-03-12T03:34:26.066Z,17.89
2023-03-12T03:38:26.247Z,17.89
2023-03-12T03:42:26.400Z,17.88
2023-03-12T03:46:26.775Z,17.88
2023-03-12T03:50:26.728Z,17.89
2023-03-12T03:54:26.881Z,17.90
2023-03-12T03:58:26.990Z,17.90
2023-03-12T04:02:27.121Z,17.89
2023-03-12T04:06:27.265Z,17.88
2023-03-12T04:10:27.426Z,17.90
2023-03-12T04:14:27.547Z,17.92
2023-03-12T04:18:27.708Z,17.90
2023-03-12T04:22:27.830Z,17.88
2023-03-12T04:26:27.941Z,17.90
2023-03-12T04:30:28.107Z,17.89
2023-03-12T04:34:28.261Z,17.94
2023-03-12T04:38:28.414Z,17.90
2023-03-12T04:42:28.512Z,17.88
2023-03-12T04:46:28.706Z,17.89
2023-03-12T04:50:28.921Z,17.90
2023-03-12T04:54:29.073Z,17.94
2023-03-12T04:58:29.130Z,17.92
2023-03-12T05:02:29.336Z,17.90
2023-03-12T05:06:29.391Z,17.98
2023-03-12T05:10:29.388Z,17.95
2023-03-12T05:14:29.380Z,17.95
2023-03-12T05:18:29.402Z,17.93
2023-03-12T05:22:29.422Z,17.94
2023-03-12T05:26:29.433Z,17.98
2023-03-12T05:30:29.531Z,17.95
2023-03-12T05:34:29.583Z,18.03
2023-03-12T05:38:29.639Z,17.98
2023-03-12T05:42:29.749Z,17.96
2023-03-12T05:46:29.879Z,17.95
2023-03-12T05:50:29.953Z,17.98
2023-03-12T05:54:29.969Z,18.00
2023-03-12T05:58:30.000Z,17.99
2023-03-12T06:02:30.220Z,17.95
2023-03-12T06:06:30.147Z,17.94
2023-03-12T06:10:30.219Z,17.99
2023-03-12T06:14:30.340Z,17.95
2023-03-12T06:18:30.405Z,17.95
2023-03-12T06:22:30.450Z,18.01
2023-03-12T06:26:30.460Z,17.99
2023-03-12T06:30:30.532Z,17.98
2023-03-12T06:34:30.663Z,18.01
2023-03-12T06:38:30.738Z,17.99
2023-03-12T06:42:30.881Z,17.99
2023-03-12T06:46:31.119Z,17.98
2023-03-12T06:50:31.179Z,17.95
2023-03-12T06:54:31.348Z,17.98
2023-03-12T06:58:31.533Z,17.94
2023-03-12T07:02:31.754Z,17.95
2023-03-12T07:06:31.945Z,17.97
2023-03-12T07:10:32.132Z,17.94
2023-03-12T07:14:32.346Z,17.93
2023-03-12T07:18:32.319Z,17.96
2023-03-12T07:22:32.294Z,17.93
2023-03-12T07:26:32.266Z,17.94
2023-03-12T07:30:32.202Z,17.91
2023-03-12T07:34:32.283Z,17.91
2023-03-12T07:38:32.149Z,17.93
2023-03-12T07:42:32.131Z,17.95
2023-03-12T07:46:32.099Z,17.92
2023-03-12T07:50:32.062Z,17.90
2023-03-12T07:54:32.293Z,17.88
2023-03-12T07:58:32.290Z,17.86
2023-03-12T08:02:32.283Z,17.89
2023-03-12T08:06:32.202Z,17.84
2023-03-12T08:10:32.147Z,17.87
2023-03-12T08:14:32.264Z,17.83
2023-03-12T08:18:32.167Z,17.78
2023-03-12T08:22:32.004Z,17.84
2023-03-12T08:26:31.953Z,17.86
2023-03-12T08:30:31.924Z,17.81
2023-03-12T08:34:31.885Z,17.84
2023-03-12T08:38:31.845Z,17.84
2023-03-12T08:42:31.837Z,17.84
2023-03-12T08:46:31.932Z,17.76
2023-03-12T08:50:32.153Z,17.75
2023-03-12T08:54:32.264Z,17.72
2023-03-12T08:58:32.447Z,17.72
2023-03-12T09:02:32.576Z,17.69
2023-03-12T09:06:32.780Z,17.74
2023-03-12T09:10:32.880Z,17.72
2023-03-12T09:15:01.898Z,17.72
2023-03-12T09:18:34.001Z,17.74
2023-03-12T09:22:32.969Z,17.71
2023-03-12T09:26:32.924Z,17.74
2023-03-12T09:30:32.920Z,17.79
2023-03-12T09:34:32.859Z,17.78
2023-03-12T09:38:33.024Z,17.74
2023-03-12T09:42:33.160Z,17.79
2023-03-12T09:46:33.318Z,17.67
2023-03-12T09:50:33.357Z,17.73
2023-03-12T09:54:33.446Z,17.69
2023-03-12T09:58:33.497Z,17.64
2023-03-12T10:02:33.538Z,17.61
2023-03-12T10:06:33.594Z,17.63
2023-03-12T10:10:33.616Z,17.68
2023-03-12T10:14:33.670Z,17.65
2023-03-12T10:18:33.854Z,17.71
2023-03-12T10:22:33.778Z,17.68
2023-03-12T10:26:34.816Z,17.75
2023-03-12T10:30:33.951Z,17.71
2023-03-12T10:34:33.895Z,17.71
2023-03-12T10:38:33.967Z,17.81
2023-03-12T10:42:34.000Z,17.74
2023-03-12T10:46:34.709Z,17.72
2023-03-12T10:50:34.085Z,17.74
2023-03-12T10:54:34.163Z,17.71
2023-03-12T10:58:34.225Z,17.75
2023-03-12T11:02:34.165Z,17.73
2023-03-12T11:06:34.153Z,17.70
2023-03-12T11:10:34.201Z,17.66
2023-03-12T11:14:34.187Z,17.66
2023-03-12T11:18:34.200Z,17.68
2023-03-12T11:22:34.222Z,17.69
2023-03-12T11:26:34.209Z,17.70
2023-03-12T11:30:34.212Z,17.67
2023-03-12T11:34:34.168Z,17.63
2023-03-12T11:38:34.193Z,17.67
2023-03-12T11:42:34.254Z,17.61
2023-03-12T11:46:34.567Z,17.61
2023-03-12T11:50:34.371Z,17.55
2023-03-12T11:54:34.373Z,17.58
2023-03-12T11:58:34.329Z,17.59
2023-03-12T12:02:34.305Z,17.63
2023-03-12T12:06:34.764Z,17.69
2023-03-12T12:10:34.226Z,17.62
2023-03-12T12:14:34.203Z,17.71
2023-03-12T12:18:34.174Z,17.67
2023-03-12T12:22:34.145Z,17.73
2023-03-12T12:26:34.093Z,17.72
2023-03-12T12:30:34.246Z,17.72
2023-03-12T12:34:34.066Z,17.74
2023-03-12T12:38:34.004Z,17.76
2023-03-12T12:42:33.949Z,17.77
2023-03-12T12:46:33.921Z,17.85
2023-03-12T12:50:33.906Z,17.94
2023-03-12T12:54:33.862Z,17.93
2023-03-12T12:58:33.814Z,17.96
2023-03-12T13:02:33.779Z,17.97
2023-03-12T13:06:33.757Z,18.01
2023-03-12T13:10:33.737Z,17.97
2023-03-12T13:14:33.678Z,18.02
2023-03-12T13:18:33.762Z,18.00
2023-03-12T13:22:33.785Z,18.12
2023-03-12T13:26:33.813Z,18.08
2023-03-12T13:30:33.823Z,18.15
2023-03-12T13:34:33.841Z,18.18
2023-03-12T13:38:33.750Z,18.25
2023-03-12T13:42:33.742Z,18.41
2023-03-12T13:46:33.740Z,18.46
2023-03-12T13:50:33.704Z,18.58
2023-03-12T13:54:33.689Z,18.83
2023-03-12T13:58:33.662Z,18.85
2023-03-12T14:02:33.641Z,19.02
2023-03-12T14:06:33.667Z,19.13
2023-03-12T14:10:33.670Z,19.17
2023-03-12T14:14:33.692Z,19.13
2023-03-12T14:18:33.673Z,19.16
2023-03-12T14:22:33.690Z,19.17
2023-03-12T14:26:33.770Z,19.20
2023-03-12T14:30:33.734Z,19.44
2023-03-12T14:34:33.800Z,19.30
2023-03-12T14:38:33.786Z,19.56
2023-03-12T14:42:33.907Z,19.26
2023-03-12T14:46:33.927Z,19.49
2023-03-12T14:50:33.900Z,19.24
2023-03-12T14:54:33.991Z,19.11
2023-03-12T14:58:34.057Z,19.11
2023-03-12T15:02:34.021Z,18.98
2023-03-12T15:06:34.109Z,19.22
2023-03-12T15:10:34.183Z,18.91
2023-03-12T15:14:34.252Z,19.19
2023-03-12T15:18:34.332Z,19.02
2023-03-12T15:22:34.399Z,19.23
2023-03-12T15:26:34.490Z,19.29
2023-03-12T15:30:34.651Z,19.40
2023-03-12T15:34:34.895Z,19.56
2023-03-12T15:38:34.963Z,19.82
2023-03-12T15:42:35.004Z,19.80
2023-03-12T15:46:35.386Z,19.94
2023-03-12T15:50:35.235Z,19.88
2023-03-12T15:54:35.436Z,19.95
2023-03-12T15:58:35.576Z,20.10
2023-03-12T16:02:35.646Z,20.12
2023-03-12T16:06:35.801Z,20.18
2023-03-12T16:10:35.933Z,20.18
2023-03-12T16:14:36.111Z,20.15
2023-03-12T16:18:36.262Z,20.15
2023-03-12T16:22:36.422Z,20.12
2023-03-12T16:26:36.588Z,20.19
2023-03-12T16:30:36.766Z,20.23
2023-03-12T16:34:36.951Z,20.28
2023-03-12T16:38:37.091Z,20.38
2023-03-12T16:42:37.297Z,20.38
2023-03-12T16:46:37.529Z,20.44
2023-03-12T16:50:37.655Z,20.57
2023-03-12T16:54:37.890Z,20.60
2023-03-12T16:58:38.066Z,20.60
2023-03-12T17:02:38.249Z,20.71
2023-03-12T17:06:38.450Z,20.69
2023-03-12T17:10:38.517Z,20.74
2023-03-12T17:14:38.677Z,20.77
2023-03-12T17:18:39.577Z,20.76
2023-03-12T17:22:39.076Z,20.76
2023-03-12T17:26:39.277Z,20.77
2023-03-12T17:30:39.529Z,20.71
2023-03-12T17:34:39.711Z,20.74
2023-03-12T17:38:39.911Z,20.67
2023-03-12T17:42:39.904Z,20.72
2023-03-12T17:46:47.000Z,20.78
2023-03-12T17:50:40.839Z,20.72
2023-03-12T17:54:39.772Z,20.77
2023-03-12T17:58:39.908Z,20.80
2023-03-12T18:02:40.151Z,20.71
2023-03-12T18:06:40.113Z,20.68
2023-03-12T18:10:40.096Z,20.72
2023-03-12T18:14:40.064Z,20.74
2023-03-12T18:18:40.036Z,20.68
2023-03-12T18:22:39.965Z,20.66
2023-03-12T18:26:39.961Z,20.65
2023-03-12T18:30:39.919Z,20.62
2023-03-12T18:34:39.887Z,20.69
2023-03-12T18:38:39.837Z,20.66
2023-03-12T18:42:39.964Z,20.68
2023-03-12T18:46:39.974Z,20.63
2023-03-12T18:50:39.905Z,20.56
2023-03-12T18:54:39.895Z,20.54
2023-03-12T18:58:39.863Z,20.54
2023-03-12T19:02:39.917Z,20.54
2023-03-12T19:06:50.101Z,20.50
2023-03-12T19:10:40.752Z,20.55
2023-03-12T19:14:39.736Z,20.59
2023-03-12T19:18:39.844Z,20.56
2023-03-12T19:22:39.786Z,20.52
2023-03-12T19:26:39.773Z,20.49
2023-03-12T19:30:39.743Z,20.46
2023-03-12T19:34:39.700Z,20.52
2023-03-12T19:38:39.628Z,20.49
2023-03-12T19:42:39.644Z,20.45
2023-03-12T19:46:39.621Z,20.48
2023-03-12T19:50:39.549Z,20.43
2023-03-12T19:54:39.582Z,20.36
2023-03-12T19:58:39.641Z,20.39
2023-03-12T20:02:39.837Z,20.34
2023-03-12T20:06:39.605Z,20.39
2023-03-12T20:10:39.584Z,20.36
2023-03-12T20:14:42.398Z,20.32
2023-03-12T20:18:39.484Z,20.33
2023-03-12T20:22:39.454Z,20.30
2023-03-12T20:26:39.476Z,20.33
2023-03-12T20:30:39.389Z,20.32
2023-03-12T20:34:39.354Z,20.23
2023-03-12T20:38:39.300Z,20.14
2023-03-12T20:42:39.277Z,20.20
2023-03-12T20:46:39.285Z,20.19
2023-03-12T20:50:39.236Z,20.10
2023-03-12T20:54:39.441Z,20.19
2023-03-12T20:58:39.395Z,20.21
2023-03-12T21:02:39.406Z,20.17
2023-03-12T21:06:39.348Z,20.13
2023-03-12T21:10:39.311Z,20.21
2023-03-12T21:14:39.285Z,20.17
2023-03-12T21:18:39.247Z,20.23
2023-03-12T21:22:39.225Z,20.26
2023-03-12T21:26:39.161Z,20.27
2023-03-12T21:30:39.185Z,20.24
2023-03-12T21:34:39.103Z,20.17
2023-03-12T21:38:39.248Z,20.21
2023-03-12T21:42:39.211Z,20.26
2023-03-12T21:46:39.249Z,20.23
2023-03-12T21:50:39.190Z,20.30
2023-03-12T21:54:39.119Z,20.24
2023-03-12T21:58:39.111Z,20.27
2023-03-12T22:02:39.076Z,20.27
2023-03-12T22:06:39.000Z,20.24
2023-03-12T22:10:38.962Z,20.22
2023-03-12T22:14:38.930Z,20.27
2023-03-12T22:18:38.890Z,20.25
2023-03-12T22:22:38.939Z,20.25
2023-03-12T22:26:39.119Z,20.24
2023-03-12T22:30:39.330Z,20.21
2023-03-12T22:34:39.442Z,20.18
2023-03-12T22:38:39.619Z,20.28
2023-03-12T22:42:39.849Z,20.25
2023-03-12T22:46:41.013Z,20.28
2023-03-12T22:50:40.145Z,20.28
2023-03-12T22:54:40.371Z,20.28
2023-03-12T22:58:40.537Z,20.31
2023-03-12T23:02:40.741Z,20.37
2023-03-12T23:06:40.828Z,20.38
2023-03-12T23:10:40.992Z,20.28
2023-03-12T23:14:41.173Z,20.18
2023-03-12T23:18:41.244Z,20.12
2023-03-12T23:22:41.456Z,20.08
2023-03-12T23:26:41.677Z,20.17
2023-03-12T23:30:41.905Z,20.18
2023-03-12T23:34:42.110Z,20.11
2023-03-12T23:38:42.311Z,20.12
2023-03-12T23:42:42.476Z,20.22
2023-03-12T23:46:42.537Z,20.19
2023-03-12T23:50:42.618Z,20.16
2023-03-12T23:54:42.646Z,20.16
2023-03-12T23:58:42.720Z,20.07
